createdAt,value
2018-08-10T00:01:34.512Z,67.70
2018-08-10T00:04:06.873Z,67.60
2018-08-10T00:06:39.826Z,67.60
2018-08-10T00:09:12.945Z,67.70
2018-08-10T00:11:45.372Z,67.70
2018-08-10T00:14:16.817Z,67.60
2018-08-10T00:16:52.348Z,67.50
2018-08-10T00:19:28.021Z,67.50
2018-08-10T00:21:59.864Z,67.60
2018-08-10T00:24:32.284Z,67.30
2018-08-10T00:27:04.360Z,67.50
2018-08-10T00:29:35.523Z,67.30
2018-08-10T00:32:08.276Z,67.10
2018-08-10T00:34:40.001Z,67.10
2018-08-10T00:37:11.630Z,67.20
2018-08-10T00:39:43.477Z,67.00
2018-08-10T00:42:15.452Z,66.80
2018-08-10T00:44:47.304Z,66.60
2018-08-10T00:47:19.915Z,66.30
2018-08-10T00:49:50.975Z,66.10
2018-08-10T00:52:22.147Z,65.80
2018-08-10T00:54:53.489Z,65.70
2018-08-10T00:57:25.677Z,65.80
2018-08-10T00:59:57.418Z,65.50
2018-08-10T01:02:28.932Z,65.40
2018-08-10T01:05:00.440Z,65.30
2018-08-10T01:07:31.615Z,65.50
2018-08-10T01:10:04.615Z,65.20
2018-08-10T01:12:36.203Z,65.20
2018-08-10T01:15:08.590Z,65.10
2018-08-10T01:17:40.253Z,65.00
2018-08-10T01:20:16.301Z,65.10
2018-08-10T01:22:52.779Z,65.10
2018-08-10T01:25:25.475Z,65.10
2018-08-10T01:27:59.228Z,65.20
2018-08-10T01:30:31.806Z,65.30
2018-08-10T01:33:03.473Z,65.60
2018-08-10T01:35:35.370Z,65.90
2018-08-10T01:38:06.862Z,65.90
2018-08-10T01:40:38.605Z,66.10
2018-08-10T01:43:10.360Z,66.30
2018-08-10T01:45:41.742Z,66.60
2018-08-10T01:48:25.945Z,66.70
2018-08-10T01:51:03.932Z,66.90
2018-08-10T01:53:36.284Z,67.10
2018-08-10T01:56:08.618Z,66.90
2018-08-10T01:58:39.848Z,66.90
2018-08-10T02:01:12.180Z,66.80
2018-08-10T02:03:44.507Z,66.90
2018-08-10T02:06:16.715Z,66.60
2018-08-10T02:08:48.327Z,66.60
2018-08-10T02:11:20.470Z,66.40
2018-08-10T02:13:51.663Z,66.30
2018-08-10T02:16:24.010Z,66.40
2018-08-10T02:18:57.401Z,66.30
2018-08-10T02:21:29.691Z,66.30
2018-08-10T02:24:01.081Z,66.40
2018-08-10T02:26:32.573Z,66.10
2018-08-10T02:29:04.279Z,66.20
2018-08-10T02:31:35.766Z,66.20
2018-08-10T02:34:07.389Z,66.10
2018-08-10T02:36:38.752Z,66.10
2018-08-10T02:39:12.688Z,66.10
2018-08-10T02:41:44.026Z,66.00
2018-08-10T02:44:15.429Z,66.10
2018-08-10T02:46:46.533Z,66.00
2018-08-10T02:49:18.211Z,66.10
2018-08-10T02:51:49.809Z,66.10
2018-08-10T02:54:25.300Z,66.10
2018-08-10T02:56:56.606Z,66.10
2018-08-10T02:59:28.450Z,66.00
2018-08-10T03:02:00.567Z,66.00
2018-08-10T03:04:33.848Z,66.10
2018-08-10T03:07:06.029Z,66.10
2018-08-10T03:09:37.515Z,66.10
2018-08-10T03:12:10.218Z,66.10
2018-08-10T03:14:42.365Z,66.20
2018-08-10T03:17:14.334Z,66.40
2018-08-10T03:19:47.321Z,66.30
2018-08-10T03:22:18.836Z,66.30
2018-08-10T03:24:51.060Z,66.40
2018-08-10T03:27:23.803Z,66.40
2018-08-10T03:29:55.604Z,66.40
2018-08-10T03:32:28.200Z,67.10
2018-08-10T03:35:00.419Z,66.30
2018-08-10T03:44:00.740Z,66.50
2018-08-10T03:46:31.984Z,66.60
2018-08-10T03:49:03.451Z,66.50
2018-08-10T03:51:36.454Z,67.00
2018-08-10T03:54:07.861Z,66.80
2018-08-10T03:56:38.992Z,66.80
2018-08-10T03:59:10.347Z,66.90
2018-08-10T04:01:42.157Z,66.70
2018-08-10T04:04:13.815Z,66.90
2018-08-10T04:06:46.182Z,66.90
2018-08-10T04:09:18.460Z,66.70
2018-08-10T04:11:50.053Z,66.80
2018-08-10T04:14:21.223Z,66.80
2018-08-10T04:16:52.364Z,66.70
2018-08-10T04:19:23.736Z,66.70
2018-08-10T04:21:55.512Z,66.50
2018-08-10T04:24:27.470Z,66.60
2018-08-10T04:26:58.751Z,66.50
2018-08-10T04:29:30.034Z,66.50
2018-08-10T04:32:02.223Z,67.10
2018-08-10T04:34:33.799Z,66.40
2018-08-10T04:37:06.700Z,66.40
2018-08-10T04:39:38.759Z,66.30
2018-08-10T04:42:10.951Z,66.10
2018-08-10T04:44:43.698Z,66.00
2018-08-10T04:47:15.757Z,66.10
2018-08-10T04:49:46.762Z,65.80
2018-08-10T04:52:18.717Z,65.80
2018-08-10T04:54:49.949Z,65.70
2018-08-10T04:57:21.812Z,65.60
2018-08-10T04:59:53.511Z,65.70
2018-08-10T05:02:24.808Z,65.60
2018-08-10T05:04:57.775Z,65.50
2018-08-10T05:07:29.793Z,65.50
2018-08-10T05:10:00.959Z,65.50
2018-08-10T05:12:32.892Z,65.50
2018-08-10T05:15:05.131Z,65.50
2018-08-10T05:17:36.717Z,65.50
2018-08-10T05:20:10.371Z,65.40
2018-08-10T05:22:42.575Z,65.40
2018-08-10T05:25:13.639Z,65.60
2018-08-10T05:27:45.708Z,65.60
2018-08-10T05:30:17.040Z,65.60
2018-08-10T05:32:49.370Z,65.70
2018-08-10T05:35:20.810Z,65.70
2018-08-10T05:37:52.287Z,65.70
2018-08-10T05:40:25.606Z,65.90
2018-08-10T05:42:58.641Z,65.90
2018-08-10T05:45:30.109Z,66.00
2018-08-10T05:48:01.432Z,66.00
2018-08-10T05:50:33.376Z,65.70
2018-08-10T05:53:05.535Z,65.80
2018-08-10T05:55:37.433Z,65.80
2018-08-10T05:58:09.047Z,65.70
2018-08-10T06:00:40.885Z,66.00
2018-08-10T06:03:12.365Z,65.60
2018-08-10T06:05:44.557Z,65.80
2018-08-10T06:08:15.824Z,65.80
2018-08-10T06:10:47.334Z,65.60
2018-08-10T06:13:19.637Z,65.50
2018-08-10T06:15:51.972Z,65.40
2018-08-10T06:18:24.208Z,65.40
2018-08-10T06:20:56.409Z,65.40
2018-08-10T06:23:28.528Z,65.60
2018-08-10T06:26:00.376Z,65.50
2018-08-10T06:28:31.743Z,65.20
2018-08-10T06:31:03.089Z,65.10
2018-08-10T06:33:35.133Z,65.20
2018-08-10T06:36:06.872Z,64.60
2018-08-10T06:38:37.942Z,64.80
2018-08-10T06:41:10.480Z,64.70
2018-08-10T06:43:41.951Z,64.60
2018-08-10T06:46:18.060Z,64.50
2018-08-10T06:48:50.773Z,64.30
2018-08-10T06:51:22.620Z,64.20
2018-08-10T06:53:54.775Z,64.20
2018-08-10T06:56:26.805Z,64.20
2018-08-10T06:58:59.808Z,64.20
2018-08-10T07:01:31.823Z,64.00
2018-08-10T07:04:04.693Z,64.00
2018-08-10T07:06:36.123Z,63.80
2018-08-10T07:09:10.838Z,64.10
2018-08-10T07:11:42.782Z,64.10
2018-08-10T07:14:15.715Z,64.30
2018-08-10T07:16:47.460Z,64.30
2018-08-10T07:19:19.888Z,65.10
2018-08-10T07:21:51.555Z,64.60
2018-08-10T07:24:25.225Z,64.70
2018-08-10T07:26:57.065Z,64.70
2018-08-10T07:29:28.916Z,64.70
2018-08-10T07:32:01.068Z,64.80
2018-08-10T07:34:32.488Z,64.90
2018-08-10T07:37:04.091Z,65.10
2018-08-10T07:39:36.648Z,65.20
2018-08-10T07:42:09.158Z,65.20
2018-08-10T07:44:40.489Z,65.10
2018-08-10T07:47:11.946Z,65.20
2018-08-10T07:49:43.337Z,65.20
2018-08-10T07:52:15.778Z,65.20
2018-08-10T07:54:47.801Z,65.20
2018-08-10T07:57:19.371Z,65.20
2018-08-10T07:59:51.189Z,65.10
2018-08-10T08:02:22.671Z,65.20
2018-08-10T08:04:54.119Z,65.10
2018-08-10T08:07:25.451Z,65.00
2018-08-10T08:09:57.336Z,64.80
2018-08-10T08:12:29.024Z,64.40
2018-08-10T08:15:00.940Z,64.30
2018-08-10T08:17:35.121Z,64.50
2018-08-10T08:20:07.607Z,64.30
2018-08-10T08:22:41.894Z,64.50
2018-08-10T08:25:13.843Z,64.40
2018-08-10T08:27:45.662Z,64.30
2018-08-10T08:30:17.964Z,64.30
2018-08-10T08:32:49.124Z,64.30
2018-08-10T08:35:22.659Z,64.30
2018-08-10T08:37:55.519Z,64.30
2018-08-10T08:40:27.728Z,64.10
2018-08-10T08:42:59.409Z,63.90
2018-08-10T08:45:55.456Z,63.70
2018-08-10T08:48:28.755Z,63.90
2018-08-10T08:51:03.280Z,63.90
2018-08-10T08:53:35.312Z,63.90
2018-08-10T08:56:09.214Z,63.90
2018-08-10T08:58:41.684Z,63.90
2018-08-10T09:01:13.589Z,64.90
2018-08-10T09:04:22.201Z,64.70
2018-08-10T09:06:54.769Z,64.60
2018-08-10T09:09:35.176Z,64.30
2018-08-10T09:12:06.850Z,63.90
2018-08-10T09:14:49.634Z,64.00
2018-08-10T09:17:21.535Z,63.60
2018-08-10T09:19:53.692Z,63.40
2018-08-10T09:22:25.849Z,63.40
2018-08-10T09:24:58.716Z,63.10
2018-08-10T09:27:31.610Z,62.70
2018-08-10T09:30:03.093Z,62.50
2018-08-10T09:32:34.622Z,62.00
2018-08-10T09:35:06.832Z,62.20
2018-08-10T09:37:39.176Z,62.20
2018-08-10T09:40:13.515Z,61.90
2018-08-10T09:42:45.845Z,61.50
2018-08-10T09:45:18.726Z,61.40
2018-08-10T09:47:51.149Z,61.40
2018-08-10T09:50:23.188Z,61.20
2018-08-10T09:53:06.330Z,61.10
2018-08-10T09:55:49.268Z,60.80
2018-08-10T09:58:32.158Z,60.50
2018-08-10T10:01:09.184Z,60.30
2018-08-10T10:03:40.830Z,60.10
2018-08-10T10:06:14.720Z,60.10
2018-08-10T10:08:46.673Z,60.20
2018-08-10T10:11:19.151Z,60.40
2018-08-10T10:13:50.449Z,60.30
2018-08-10T10:16:22.817Z,60.10
2018-08-10T10:18:55.174Z,60.20
2018-08-10T10:21:26.764Z,60.00
2018-08-10T10:23:58.369Z,60.20
2018-08-10T10:26:29.964Z,59.70
2018-08-10T10:29:02.607Z,59.50
2018-08-10T10:31:34.393Z,59.50
2018-08-10T10:34:07.247Z,59.00
2018-08-10T10:36:39.925Z,59.40
2018-08-10T10:39:13.472Z,59.20
2018-08-10T10:41:44.837Z,59.20
2018-08-10T10:44:17.041Z,58.80
2018-08-10T10:46:49.031Z,58.90
2018-08-10T10:49:21.379Z,59.00
2018-08-10T10:51:54.320Z,59.20
2018-08-10T10:54:26.681Z,59.10
2018-08-10T10:56:58.484Z,59.20
2018-08-10T10:59:30.480Z,58.60
2018-08-10T11:02:02.166Z,58.30
2018-08-10T11:04:34.095Z,57.70
2018-08-10T11:07:05.745Z,57.30
2018-08-10T11:09:38.792Z,57.00
2018-08-10T11:12:10.423Z,57.20
2018-08-10T11:14:42.209Z,56.80
2018-08-10T11:17:13.747Z,57.00
2018-08-10T11:19:46.781Z,57.00
2018-08-10T11:22:18.237Z,56.40
2018-08-10T11:24:50.133Z,56.80
2018-08-10T11:27:22.138Z,56.50
2018-08-10T11:29:53.518Z,56.20
2018-08-10T11:32:26.332Z,56.40
2018-08-10T11:35:02.155Z,56.70
2018-08-10T11:37:33.788Z,56.70
2018-08-10T11:40:06.591Z,56.80
2018-08-10T11:42:38.008Z,56.60
2018-08-10T11:45:11.750Z,56.90
2018-08-10T11:47:45.577Z,57.00
2018-08-10T11:50:17.733Z,57.20
2018-08-10T11:52:50.052Z,57.10
2018-08-10T11:55:22.618Z,57.30
2018-08-10T11:57:54.204Z,57.00
2018-08-10T12:00:25.888Z,57.00
2018-08-10T12:02:57.991Z,57.20
2018-08-10T12:05:31.118Z,57.00
2018-08-10T12:08:03.072Z,56.90
2018-08-10T12:10:34.749Z,56.90
2018-08-10T12:13:06.972Z,56.60
2018-08-10T12:15:38.157Z,56.40
2018-08-10T12:18:11.260Z,56.40
2018-08-10T12:20:43.396Z,56.40
2018-08-10T12:23:15.202Z,56.20
2018-08-10T12:25:47.521Z,56.60
2018-08-10T12:28:19.283Z,56.40
2018-08-10T12:30:51.890Z,56.30
2018-08-10T12:33:23.725Z,56.30
2018-08-10T12:35:55.430Z,56.20
2018-08-10T12:38:29.331Z,56.20
2018-08-10T12:41:02.103Z,56.00
2018-08-10T12:43:34.262Z,55.90
2018-08-10T12:46:05.771Z,56.10
2018-08-10T12:48:37.507Z,55.80
2018-08-10T12:51:10.484Z,55.80
2018-08-10T12:53:41.929Z,55.60
2018-08-10T12:56:13.593Z,55.60
2018-08-10T12:58:44.864Z,55.60
2018-08-10T13:01:17.853Z,55.30
2018-08-10T13:03:50.347Z,55.20
2018-08-10T13:06:22.017Z,55.20
2018-08-10T13:09:01.526Z,55.10
2018-08-10T13:11:33.195Z,55.20
2018-08-10T13:14:06.214Z,55.10
2018-08-10T13:16:37.923Z,55.20
2018-08-10T13:19:09.600Z,55.20
2018-08-10T13:21:42.086Z,55.00
2018-08-10T13:24:13.724Z,55.20
2018-08-10T13:26:45.558Z,55.20
2018-08-10T13:29:17.310Z,55.20
2018-08-10T13:31:49.983Z,55.10
2018-08-10T13:34:22.366Z,55.10
2018-08-10T13:36:54.642Z,55.20
2018-08-10T13:39:30.380Z,54.30
2018-08-10T13:42:02.563Z,54.60
2018-08-10T13:44:35.020Z,54.50
2018-08-10T13:47:06.614Z,54.30
2018-08-10T13:49:38.442Z,55.00
2018-08-10T13:52:11.041Z,54.50
2018-08-10T13:54:43.878Z,53.90
2018-08-10T13:57:16.146Z,54.40
2018-08-10T13:59:48.050Z,54.20
2018-08-10T14:02:20.354Z,53.90
2018-08-10T14:04:52.015Z,53.70
2018-08-10T14:07:23.502Z,53.40
2018-08-10T14:09:55.806Z,53.70
2018-08-10T14:12:27.387Z,53.80
2018-08-10T14:15:00.873Z,53.90
2018-08-10T14:17:32.999Z,54.20
2018-08-10T14:20:05.360Z,54.40
2018-08-10T14:23:16.809Z,54.40
2018-08-10T14:25:48.302Z,54.50
2018-08-10T14:28:19.890Z,53.80
2018-08-10T14:30:52.232Z,53.80
2018-08-10T14:33:23.906Z,53.70
2018-08-10T14:35:56.036Z,54.50
2018-08-10T14:38:27.854Z,54.80
2018-08-10T14:41:01.756Z,54.20
2018-08-10T14:43:37.107Z,54.10
2018-08-10T14:46:10.195Z,54.60
2018-08-10T14:48:42.103Z,54.10
2018-08-10T14:51:14.015Z,54.40
2018-08-10T14:53:46.546Z,54.20
2018-08-10T14:56:22.091Z,55.30
2018-08-10T14:58:55.236Z,55.10
2018-08-10T15:01:27.479Z,54.10
2018-08-10T15:03:59.840Z,54.40
2018-08-10T15:06:33.183Z,55.10
2018-08-10T15:09:08.630Z,55.20
2018-08-10T15:11:44.229Z,55.10
2018-08-10T15:14:17.184Z,55.20
2018-08-10T15:16:48.819Z,55.10
2018-08-10T15:19:20.379Z,55.60
2018-08-10T15:21:52.531Z,55.70
2018-08-10T15:24:24.110Z,55.20
2018-08-10T15:26:56.337Z,55.10
2018-08-10T15:29:28.038Z,56.10
2018-08-10T15:32:01.182Z,56.40
2018-08-10T15:34:33.791Z,56.90
2018-08-10T15:37:05.444Z,57.40
2018-08-10T15:39:37.600Z,57.90
2018-08-10T15:42:10.683Z,58.00
2018-08-10T15:44:42.008Z,58.30
2018-08-10T15:47:14.245Z,58.40
2018-08-10T15:49:47.109Z,57.90
2018-08-10T15:52:20.075Z,57.20
2018-08-10T15:54:51.560Z,56.40
2018-08-10T15:57:23.803Z,55.00
2018-08-10T16:00:08.262Z,55.20
2018-08-10T16:02:41.259Z,54.90
2018-08-10T16:05:13.129Z,54.30
2018-08-10T16:07:45.369Z,54.50
2018-08-10T16:10:17.168Z,54.40
2018-08-10T16:12:50.386Z,54.00
2018-08-10T16:15:22.139Z,54.40
2018-08-10T16:17:55.808Z,54.60
2018-08-10T16:20:28.408Z,54.50
2018-08-10T16:23:03.435Z,55.10
2018-08-10T16:25:35.359Z,55.10
2018-08-10T16:28:10.386Z,55.50
2018-08-10T16:30:42.258Z,55.30
2018-08-10T16:33:16.434Z,55.40
2018-08-10T16:35:48.333Z,55.40
2018-08-10T16:38:20.819Z,55.50
2018-08-10T16:40:55.198Z,55.50
2018-08-10T16:43:27.454Z,55.30
2018-08-10T16:45:59.959Z,55.60
2018-08-10T16:48:31.846Z,55.50
2018-08-10T16:51:03.926Z,55.50
2018-08-10T16:53:37.311Z,55.80
2018-08-10T16:56:09.972Z,55.80
2018-08-10T16:58:42.205Z,55.70
2018-08-10T17:01:14.203Z,56.00
2018-08-10T17:03:46.116Z,56.00
2018-08-10T17:06:17.317Z,56.10
2018-08-10T17:08:49.182Z,56.00
2018-08-10T17:11:21.833Z,56.00
2018-08-10T17:13:54.604Z,56.40
2018-08-10T17:16:25.856Z,56.20
2018-08-10T17:18:57.698Z,56.50
2018-08-10T17:21:29.198Z,56.60
2018-08-10T17:24:01.505Z,56.50
2018-08-10T17:26:33.322Z,56.60
2018-08-10T17:29:04.791Z,56.80
2018-08-10T17:31:39.107Z,56.80
2018-08-10T17:34:11.588Z,56.60
2018-08-10T17:36:45.218Z,56.70
2018-08-10T17:39:16.737Z,56.70
2018-08-10T17:41:49.048Z,56.50
2018-08-10T17:44:21.795Z,56.60
2018-08-10T17:46:53.231Z,56.60
2018-08-10T17:49:25.322Z,56.80
2018-08-10T17:51:57.497Z,56.70
2018-08-10T17:54:33.503Z,56.90
2018-08-10T17:57:05.352Z,56.60
2018-08-10T17:59:38.621Z,56.70
2018-08-10T18:02:10.761Z,56.60
2018-08-10T18:04:43.697Z,56.60
2018-08-10T18:07:15.084Z,56.40
2018-08-10T18:10:05.553Z,56.40
2018-08-10T18:12:39.295Z,56.40
2018-08-10T18:18:00.017Z,55.70
2018-08-10T18:20:41.725Z,56.20
2018-08-10T18:23:15.254Z,56.20
2018-08-10T18:25:47.624Z,55.80
2018-08-10T18:28:19.460Z,56.10
2018-08-10T18:30:51.829Z,56.10
2018-08-10T18:33:24.639Z,56.30
2018-08-10T18:35:56.421Z,55.90
2018-08-10T18:38:29.286Z,56.40
2018-08-10T18:41:02.192Z,56.10
2018-08-10T18:43:35.495Z,56.30
2018-08-10T18:46:08.900Z,56.10
2018-08-10T18:48:43.980Z,56.10
2018-08-10T18:51:16.657Z,56.40
2018-08-10T18:53:49.428Z,56.40
2018-08-10T18:56:23.401Z,56.60
2018-08-10T18:59:01.403Z,56.60
2018-08-10T19:01:32.833Z,56.70
2018-08-10T19:04:05.045Z,56.70
2018-08-10T19:06:37.991Z,56.50
2018-08-10T19:09:11.042Z,56.70
2018-08-10T19:11:43.349Z,56.60
2018-08-10T19:14:15.807Z,56.60
2018-08-10T19:16:48.034Z,57.30
2018-08-10T19:19:21.558Z,56.90
2018-08-10T19:21:53.725Z,56.60
2018-08-10T19:24:26.476Z,56.80
2018-08-10T19:26:58.444Z,57.70
2018-08-10T19:29:33.149Z,58.20
2018-08-10T19:32:24.768Z,58.30
2018-08-10T19:34:58.228Z,58.10
2018-08-10T19:37:30.109Z,57.80
2018-08-10T19:40:04.583Z,58.00
2018-08-10T19:42:36.449Z,57.30
2018-08-10T19:45:08.960Z,57.40
2018-08-10T19:47:43.315Z,57.60
2018-08-10T19:50:17.703Z,57.50
2018-08-10T19:52:50.208Z,57.20
2018-08-10T19:58:40.082Z,57.40
2018-08-10T20:01:17.333Z,57.40
2018-08-10T20:03:52.719Z,57.40
2018-08-10T20:06:24.848Z,57.30
2018-08-10T20:08:58.407Z,57.40
2018-08-10T20:11:30.480Z,57.40
2018-08-10T20:14:03.334Z,57.30
2018-08-10T20:16:36.068Z,57.20
2018-08-10T20:19:08.148Z,57.30
2018-08-10T20:21:40.475Z,57.20
2018-08-10T20:24:13.798Z,57.20
2018-08-10T20:26:46.768Z,57.20
2018-08-10T20:29:19.281Z,57.40
2018-08-10T20:31:51.849Z,57.30
2018-08-10T20:34:24.781Z,57.30
2018-08-10T20:36:57.890Z,57.20
2018-08-10T20:39:31.065Z,57.40
2018-08-10T20:42:03.148Z,57.10
2018-08-10T20:44:36.013Z,57.00
2018-08-10T20:47:08.175Z,57.20
2018-08-10T20:49:39.785Z,57.40
2018-08-10T20:52:14.542Z,57.40
2018-08-10T20:54:46.422Z,57.50
2018-08-10T20:57:18.487Z,57.40
2018-08-10T20:59:51.498Z,57.30
2018-08-10T21:02:24.872Z,57.30
2018-08-10T21:04:56.982Z,57.30
2018-08-10T21:07:29.606Z,57.40
2018-08-10T21:10:02.376Z,57.40
2018-08-10T21:12:36.185Z,57.50
2018-08-10T21:15:09.005Z,57.40
2018-08-10T21:17:41.493Z,57.40
2018-08-10T21:20:15.089Z,57.30
2018-08-10T21:22:47.374Z,57.40
2018-08-10T21:25:19.796Z,57.50
2018-08-10T21:27:52.457Z,57.40
2018-08-10T21:30:26.120Z,58.10
2018-08-10T21:32:59.159Z,57.50
2018-08-10T21:35:32.240Z,57.40
2018-08-10T21:38:04.631Z,57.50
2018-08-10T21:40:40.567Z,57.40
2018-08-10T21:43:19.240Z,57.40
2018-08-10T21:45:53.635Z,57.50
2018-08-10T21:48:25.567Z,57.40
2018-08-10T21:50:58.537Z,57.60
2018-08-10T21:53:30.055Z,57.50
2018-08-10T21:56:02.963Z,57.40
2018-08-10T21:58:38.471Z,57.30
2018-08-10T22:01:13.053Z,57.40
2018-08-10T22:03:45.428Z,57.50
2018-08-10T22:06:20.436Z,57.40
2018-08-10T22:08:55.989Z,57.50
2018-08-10T22:11:28.030Z,57.50
2018-08-10T22:14:05.050Z,57.50
2018-08-10T22:16:42.148Z,57.40
2018-08-10T22:19:16.180Z,57.50
2018-08-10T22:21:49.294Z,58.10
2018-08-10T22:24:21.131Z,57.50
2018-08-10T22:26:52.483Z,57.40
2018-08-10T22:29:24.889Z,57.30
2018-08-10T22:31:56.895Z,57.50
2018-08-10T22:34:28.928Z,57.20
2018-08-10T22:37:01.823Z,57.20
2018-08-10T22:39:39.118Z,57.30
2018-08-10T22:42:10.751Z,57.40
2018-08-10T22:44:42.621Z,57.30
2018-08-10T22:47:14.438Z,57.30
2018-08-10T22:49:46.516Z,57.40
2018-08-10T22:52:18.351Z,57.30
2018-08-10T22:54:49.840Z,57.20
2018-08-10T22:57:21.150Z,57.20
2018-08-10T22:59:53.576Z,57.30
2018-08-10T23:02:25.165Z,57.20
2018-08-10T23:04:57.680Z,57.30
2018-08-10T23:07:28.841Z,57.20
2018-08-10T23:10:00.525Z,57.30
2018-08-10T23:12:32.112Z,57.30
2018-08-10T23:15:05.103Z,57.30
2018-08-10T23:17:37.980Z,57.40
2018-08-10T23:20:12.294Z,57.40
2018-08-10T23:22:43.945Z,57.30
2018-08-10T23:25:15.904Z,57.40
2018-08-10T23:27:47.700Z,57.50
2018-08-10T23:30:20.301Z,57.40
2018-08-10T23:32:51.591Z,57.40
2018-08-10T23:35:23.546Z,57.40
2018-08-10T23:37:54.749Z,57.60
2018-08-10T23:40:26.005Z,57.60
2018-08-10T23:42:58.415Z,57.60
2018-08-10T23:45:30.227Z,57.70
2018-08-10T23:48:01.481Z,57.60
2018-08-10T23:50:33.765Z,57.70
2018-08-10T23:53:07.110Z,57.70
2018-08-10T23:55:38.672Z,57.70
2018-08-10T23:58:10.811Z,57.80
